Nearby METAR Reports

 

KIAH - dist=7 mi (11 km), dir=SSE, Houston/Intnl, Texas, USA elev=36
Updated: Sat, 21-Oct-2017 9:53am CDT
Partly cloudy
Partly cloudy
 Wind from E
Wind: E 5 mph , 7 km/h
Temperature: 79°F , 26°C
Dew Point: 75°F , 24°C
Humidity: 89%
Barometer: 29.98 inHg , 1015.2 hPa
Clouds: Partly cloudy
Visibility: 10 miles , 16 km
Cloud details: Few Clouds 2000 ft
Few Clouds 4500 ft
Partly cloudy 6000 ft
Partly cloudy 25000 ft
2017/10/21 14:53 KIAH 211453Z 10004KT 10SM FEW020 FEW045 SCT060 SCT250 26/24 A2998 RMK AO2 SLP152 T02610239 53009
KDWH - dist=10 mi (16 km), dir=WSW, Houston/Dw Hooks, Texas, USA elev=46
Updated: Sat, 21-Oct-2017 9:53am CDT
Partly cloudy
Partly cloudy
 Wind from varies
Wind: varies 3 mph , 6 km/h
Temperature: 81°F , 27°C
Heat Index: 86°F , 30°C
Dew Point: 73°F , 23°C
Humidity: 79%
Barometer: 29.98 inHg , 1015.2 hPa
Clouds: Partly cloudy
Visibility: 10 miles , 16 km
Cloud details: Few Clouds 1400 ft
Partly cloudy 2800 ft
2017/10/21 14:53 KDWH 211453Z VRB03KT 10SM FEW014 SCT028 27/23 A2998 RMK AO2 SLP150 T02670228 53011
 
KCXO - dist=17 mi (28 km), dir=N, Conroe, Texas, USA elev=75
Updated: Sat, 21-Oct-2017 10:07am CDT
Overcast
Overcast
 Wind from SE
Wind: SE 5 mph , 7 km/h
Temperature: 75°F , 24°C
Dew Point: 75°F , 24°C
Humidity: 100%
Barometer: 29.99 inHg , 1015.6 hPa
Clouds: Overcast
Visibility: 10 miles , 16 km
Cloud details: Mostly cloudy 500 ft
Overcast 4100 ft
2017/10/21 15:07 KCXO 211507Z 13004KT 10SM BKN005 OVC041 24/24 A2999 RMK AO2 CIG 004V008 T02440239
KMCJ - dist=26 mi (43 km), dir=S, Houston/Univ, Texas, USA elev=69
Updated: Sat, 21-Oct-2017 10:35am CDT

 Wind from ESE
Wind: ESE 8 mph , 13 km/h, Gust: 15 mph , 24 km/h
Temperature: 82°F , 28°C
Heat Index: 87°F , 31°C
Dew Point: 73°F , 23°C
Humidity: 74%
Barometer: 29.97 inHg , 1014.9 hPa
Visibility: 10 miles , 16 km
2017/10/21 15:35 KMCJ 211535Z AUTO 12007G13KT 350V150 10SM 28/23 A2997 RMK A01
 
K6R3 - dist=29 mi (47 km), dir=NE, Cleveland Muni, Texas, USA elev=46
Updated: Sat, 21-Oct-2017 10:35am CDT
Mostly cloudy
Mostly cloudy
 Wind from S
Wind: S 3 mph , 6 km/h
Temperature: 79°F , 26°C
Dew Point: 73°F , 23°C
Humidity: 84%
Barometer: 30.00 inHg , 1015.9 hPa
Clouds: Mostly cloudy
Visibility: 7 miles , 11 km
Cloud details: Mostly cloudy 600 ft
Mostly cloudy 1000 ft
Mostly cloudy 2300 ft
2017/10/21 15:35 K6R3 211535Z AUTO 17003KT 7SM BKN006 BKN010 BKN023 26/23 A3000 RMK AO2 T02600228
KHOU - dist=33 mi (53 km), dir=SSE, Houston/Hobby, Texas, USA elev=36
Updated: Sat, 21-Oct-2017 9:53am CDT
Partly cloudy
Partly cloudy
 Wind from SE
Wind: SE 7 mph , 11 km/h
Temperature: 82°F , 28°C
Heat Index: 87°F , 31°C
Dew Point: 73°F , 23°C
Humidity: 74%
Barometer: 29.97 inHg , 1014.9 hPa
Clouds: Partly cloudy
Visibility: 10 miles , 16 km
Cloud details: Few Clouds 2500 ft
Few Clouds 4000 ft
Partly cloudy 6500 ft
Partly cloudy 25000 ft
2017/10/21 14:53 KHOU 211453Z 13006KT 10SM FEW025 FEW040 SCT065 SCT250 28/23 A2997 RMK AO2 SLP154 T02830233 53011
 
KSGR - dist=37 mi (59 km), dir=SSW, Houston/Sugar La, Texas, USA elev=2
Updated: Sat, 21-Oct-2017 10:25am CDT
Mostly cloudy
Mostly cloudy
 Wind from SSE
Wind: SSE 9 mph , 15 km/h
Temperature: 82°F , 28°C
Heat Index: 89°F , 32°C
Dew Point: 75°F , 24°C
Humidity: 79%
Barometer: 29.97 inHg , 1014.9 hPa
Clouds: Mostly cloudy
Visibility: 10 miles , 16 km
Cloud details: Partly cloudy 1600 ft
Mostly cloudy 2300 ft
Mostly cloudy 3500 ft
2017/10/21 15:25 KSGR 211525Z 15008KT 10SM SCT016 BKN023 BKN035 28/24 A2997 RMK AO2 T02780239
KTME - dist=37 mi (59 km), dir=SW, Houston Exec, Texas, USA elev=51
Updated: Sat, 21-Oct-2017 10:35am CDT
Few Clouds
Few Clouds
 Wind from S
Wind: S 8 mph , 13 km/h
Temperature: 82°F , 28°C
Heat Index: 89°F , 32°C
Dew Point: 75°F , 24°C
Humidity: 79%
Barometer: 29.98 inHg , 1015.2 hPa
Clouds: Few Clouds
Visibility: 10 miles , 16 km
Cloud details: Few Clouds 1600 ft
Few Clouds 2600 ft
2017/10/21 15:35 KTME 211535Z AUTO 17007KT 10SM FEW016 FEW026 28/24 A2998 RMK AO2
 
KEFD - dist=37 mi (60 km), dir=SSE, Houston/Ellingto, Texas, USA elev=10
Updated: Sat, 21-Oct-2017 8:50am CDT
NOT Current
Few Clouds
Few Clouds
 Wind from ESE
Wind: ESE 7 mph , 11 km/h
Temperature: 81°F , 27°C
Heat Index: 85°F , 29°C
Dew Point: 72°F , 22°C
Humidity: 74%
Barometer: 29.97 inHg , 1014.9 hPa
Clouds: Few Clouds
Visibility: 10 miles , 16 km
Cloud details: Few Clouds 3000 ft
2017/10/21 13:50 KEFD 211350Z 11006KT 10SM FEW030 27/22 A2997
KAXH - dist=41 mi (65 km), dir=S, Houston/Southwst, Texas, USA elev=21
Updated: Sat, 21-Oct-2017 10:35am CDT
Partly cloudy
Partly cloudy
 Wind from SSE
Wind: SSE 7 mph , 11 km/h
Temperature: 82°F , 28°C
Heat Index: 89°F , 32°C
Dew Point: 75°F , 24°C
Humidity: 79%
Barometer: 29.98 inHg , 1015.2 hPa
Clouds: Partly cloudy
Visibility: 10 miles , 16 km
Cloud details: Partly cloudy 1400 ft
Partly cloudy 2900 ft
Partly cloudy 4000 ft
2017/10/21 15:35 KAXH 211535Z AUTO 15006KT 10SM SCT014 SCT029 SCT040 28/24 A2998 RMK AO2 T02750239
 
KLVJ - dist=41 mi (66 km), dir=SSE, Houston, Texas, USA elev=12
Updated: Sat, 21-Oct-2017 9:53am CDT
Few Clouds
Few Clouds
 Wind from SE
Wind: SE 8 mph , 13 km/h
Temperature: 82°F , 28°C
Heat Index: 89°F , 32°C
Dew Point: 75°F , 24°C
Humidity: 79%
Barometer: 29.98 inHg , 1015.2 hPa
Clouds: Few Clouds
Visibility: 10 miles , 16 km
Cloud details: Few Clouds 1600 ft
2017/10/21 14:53 KLVJ 211453Z AUTO 14007KT 10SM FEW016 28/24 A2998 RMK AO2 RAB08E30 SLP152 P0001 60001 T02780239 51009
KUTS - dist=46 mi (75 km), dir=NNW, Huntsville, Texas, USA elev=104
Updated: Sat, 21-Oct-2017 10:38am CDT
Mostly cloudy
Mostly cloudy
 Wind from SSE
Wind: SSE 10 mph , 17 km/h, Gust: 17 mph , 28 km/h
Temperature: 81°F , 27°C
Heat Index: 85°F , 29°C
Dew Point: 72°F , 22°C
Humidity: 74%
Barometer: 29.96 inHg , 1014.6 hPa
Clouds: Mostly cloudy
Visibility: 10 miles , 16 km
Cloud details: Mostly cloudy 1200 ft
2017/10/21 15:38 KUTS 211538Z AUTO 15009G15KT 100V170 10SM BKN012 27/22 A2996 RMK AO2 T02670217